Time;durP1;ratioP1;P1;durP2;ratioP2;P2;SDS_P1;SDS_P2;PMS_P1;PMS_P2;Temp;Humidity;BMP_temperature;BMP_pressure;BME280_temperature;BME280_humidity;BME280_pressure;Samples;Min_cycle;Max_cycle;Signal;HPM_P1;HPM_P2
2021/04/15 00:02:01;;;;;;;8.27;6.83;;;3.40;90.40;;;;;;5063531;28;20692;-84
2021/04/15 00:04:28;;;;;;;9.33;6.90;;;3.60;90.40;;;;;;5070830;28;20193;-84
2021/04/15 00:06:55;;;;;;;9.47;7.33;;;3.60;88.10;;;;;;5071539;28;20209;-84
2021/04/15 00:09:24;;;;;;;9.00;7.30;;;3.70;88.20;;;;;;5067083;28;20190;-82
2021/04/15 00:11:51;;;;;;;10.17;7.60;;;3.60;88.10;;;;;;5064652;28;20209;-82
2021/04/15 00:14:20;;;;;;;10.50;8.17;;;3.50;88.00;;;;;;5063715;28;20251;-85
2021/04/15 00:16:46;;;;;;;10.20;7.63;;;3.50;88.70;;;;;;5069296;28;20247;-84
2021/04/15 00:19:15;;;;;;;9.50;7.43;;;3.60;90.00;;;;;;5055215;28;20194;-86
2021/04/15 00:21:42;;;;;;;10.37;7.67;;;3.80;88.20;;;;;;5063754;28;20278;-84
2021/04/15 00:24:08;;;;;;;7.70;6.90;;;3.90;88.80;;;;;;5060790;28;20676;-84
2021/04/15 00:26:36;;;;;;;8.33;6.90;;;4.00;88.40;;;;;;5068957;28;20224;-84
2021/04/15 00:29:03;;;;;;;8.53;7.47;;;4.20;88.50;;;;;;5065847;28;20202;-84
2021/04/15 00:31:30;;;;;;;10.13;7.33;;;4.20;88.50;;;;;;5063478;28;20229;-85
2021/04/15 00:33:56;;;;;;;8.20;7.33;;;4.30;88.50;;;;;;5068614;28;20216;-84
2021/04/15 00:36:25;;;;;;;7.33;6.53;;;4.30;87.70;;;;;;5069715;28;20274;-85
2021/04/15 00:38:52;;;;;;;9.57;7.10;;;4.40;86.80;;;;;;5071978;28;20729;-84
2021/04/15 00:41:18;;;;;;;10.30;6.93;;;4.40;85.90;;;;;;5070728;28;20687;-84
2021/04/15 00:43:46;;;;;;;7.63;6.70;;;4.40;86.70;;;;;;5072563;28;20208;-84
2021/04/15 00:46:43;;;;;;;8.47;6.97;;;4.50;86.00;;;;;;5066209;28;20226;-84
2021/04/15 00:49:11;;;;;;;10.00;7.50;;;4.40;86.40;;;;;;5059664;28;20216;-85
2021/04/15 00:51:42;;;;;;;11.53;7.03;;;4.30;86.10;;;;;;5065054;28;20228;-84
2021/04/15 00:54:12;;;;;;;11.00;7.10;;;4.40;86.70;;;;;;5065864;28;20719;-84
2021/04/15 00:56:39;;;;;;;8.53;6.63;;;4.40;86.60;;;;;;5070020;28;20250;-84
2021/04/15 00:59:07;;;;;;;9.83;7.17;;;4.30;84.20;;;;;;5072566;28;20198;-83
2021/04/15 01:01:34;;;;;;;9.43;7.60;;;4.20;86.90;;;;;;5069912;28;20225;-84
2021/04/15 01:04:01;;;;;;;7.73;6.90;;;4.10;86.30;;;;;;5070266;28;20209;-84
2021/04/15 01:06:27;;;;;;;9.53;7.77;;;4.20;87.20;;;;;;5070427;28;20248;-84
2021/04/15 01:08:54;;;;;;;9.80;7.03;;;4.10;85.90;;;;;;5065062;28;20224;-84
2021/04/15 01:11:34;;;;;;;9.47;7.23;;;4.10;88.40;;;;;;5069953;28;20567;-85
2021/04/15 01:14:08;;;;;;;8.43;6.87;;;4.10;87.90;;;;;;5068284;28;20265;-84
2021/04/15 01:16:43;;;;;;;10.80;7.47;;;4.10;88.00;;;;;;5069325;28;20274;-85
2021/04/15 01:19:31;;;;;;;8.47;6.77;;;4.00;85.70;;;;;;5058494;28;20197;-85
2021/04/15 01:22:14;;;;;;;7.97;6.53;;;3.90;88.30;;;;;;5067275;28;20227;-84
2021/04/15 01:24:47;;;;;;;7.97;7.17;;;3.90;88.30;;;;;;5068152;28;20230;-84
2021/04/15 01:27:35;;;;;;;8.50;7.60;;;3.90;87.00;;;;;;5070472;28;20208;-84
2021/04/15 01:30:15;;;;;;;8.97;7.23;;;3.60;88.10;;;;;;5065488;28;20244;-83
2021/04/15 01:32:53;;;;;;;9.67;8.20;;;3.50;88.00;;;;;;5070645;28;20741;-84
2021/04/15 01:35:24;;;;;;;8.97;7.00;;;3.50;88.10;;;;;;5070152;28;20237;-83
2021/04/15 01:37:56;;;;;;;8.90;7.20;;;3.60;88.10;;;;;;5068568;28;20576;-84
2021/04/15 01:40:27;;;;;;;11.57;7.87;;;3.70;88.20;;;;;;5075111;28;20237;-84
2021/04/15 01:43:00;;;;;;;9.43;7.93;;;3.70;87.30;;;;;;5071310;28;20201;-81
2021/04/15 01:45:30;;;;;;;8.47;7.57;;;3.70;88.20;;;;;;5076248;28;20232;-81
2021/04/15 01:47:59;;;;;;;11.43;8.10;;;3.50;88.00;;;;;;5076770;28;20531;-82
2021/04/15 01:50:31;;;;;;;13.43;8.07;;;3.60;88.10;;;;;;5073726;28;20226;-82
2021/04/15 01:53:07;;;;;;;11.60;8.07;;;3.60;88.10;;;;;;5074519;28;20209;-81
2021/04/15 01:55:37;;;;;;;10.00;8.00;;;3.60;88.10;;;;;;5079237;28;20224;-81
2021/04/15 01:58:09;;;;;;;11.67;7.67;;;3.60;88.10;;;;;;5077531;28;20193;-81
2021/04/15 02:00:39;;;;;;;9.17;8.07;;;3.60;88.10;;;;;;5072501;28;20264;-81
2021/04/15 02:03:09;;;;;;;9.67;8.17;;;3.60;88.10;;;;;;5079690;28;20197;-81
2021/04/15 02:05:38;;;;;;;8.87;7.93;;;3.50;85.30;;;;;;5069551;28;20775;-81
2021/04/15 02:08:08;;;;;;;10.50;8.60;;;3.30;87.90;;;;;;5075257;28;20223;-81
2021/04/15 02:10:36;;;;;;;10.47;9.03;;;3.10;87.80;;;;;;5077264;28;20248;-82
2021/04/15 02:13:06;;;;;;;13.90;8.70;;;2.70;87.50;;;;;;5069978;28;20217;-81
2021/04/15 02:15:44;;;;;;;10.00;8.60;;;2.60;90.20;;;;;;5065967;28;20225;-82
2021/04/15 02:18:16;;;;;;;12.10;8.57;;;2.50;91.30;;;;;;5073443;28;20207;-82
2021/04/15 02:20:47;;;;;;;12.77;9.13;;;2.50;91.80;;;;;;5068703;28;20539;-82
2021/04/15 02:23:21;;;;;;;10.43;8.83;;;2.70;91.00;;;;;;5068882;28;20196;-85
2021/04/15 02:31:28;;;;;;;12.27;8.70;;;2.30;90.40;;;;;;5055779;28;20274;-82
2021/04/15 02:34:07;;;;;;;12.33;9.43;;;2.20;91.40;;;;;;5067096;28;20207;-82
2021/04/15 02:36:41;;;;;;;12.80;9.10;;;2.30;91.70;;;;;;5063537;28;20225;-82
2021/04/15 02:39:10;;;;;;;10.50;9.37;;;2.50;91.70;;;;;;5069543;28;20208;-83
2021/04/15 02:41:40;;;;;;;11.57;8.93;;;2.50;91.50;;;;;;5064966;28;20243;-82
2021/04/15 02:44:12;;;;;;;11.90;9.10;;;2.60;91.50;;;;;;5067909;28;20208;-82
2021/04/15 02:46:44;;;;;;;12.47;9.00;;;2.60;90.40;;;;;;5060003;28;20224;-83
2021/04/15 02:49:14;;;;;;;14.07;9.33;;;2.60;90.90;;;;;;5073191;28;20207;-82
2021/04/15 02:51:46;;;;;;;11.43;8.77;;;2.50;90.10;;;;;;5061693;28;20232;-83
2021/04/15 02:54:18;;;;;;;12.13;8.70;;;2.50;90.70;;;;;;5067817;28;20208;-83
2021/04/15 02:56:49;;;;;;;11.43;8.57;;;2.70;90.80;;;;;;5070735;28;20676;-82
2021/04/15 02:59:21;;;;;;;10.10;8.00;;;2.80;90.40;;;;;;5071592;28;20200;-82
2021/04/15 03:01:51;;;;;;;11.47;8.20;;;2.80;87.90;;;;;;5069915;28;20240;-82
2021/04/15 03:04:21;;;;;;;11.17;8.43;;;2.80;90.00;;;;;;5071829;28;20209;-82
2021/04/15 03:06:50;;;;;;;14.13;9.17;;;2.80;89.20;;;;;;5068178;28;20204;-82
2021/04/15 03:09:18;;;;;;;10.23;8.20;;;2.80;89.00;;;;;;5068610;28;20212;-82
2021/04/15 03:11:50;;;;;;;10.60;7.77;;;2.80;89.60;;;;;;5068506;28;20557;-82
2021/04/15 03:14:19;;;;;;;9.27;7.53;;;2.80;89.40;;;;;;5071430;28;20204;-84
2021/04/15 03:16:49;;;;;;;12.03;8.23;;;2.80;89.40;;;;;;5071299;28;20229;-82
2021/04/15 03:19:18;;;;;;;10.53;7.97;;;2.80;88.40;;;;;;5071949;28;20201;-82
2021/04/15 03:21:51;;;;;;;9.00;7.77;;;2.70;87.50;;;;;;5071279;28;20634;-82
2021/04/15 03:24:23;;;;;;;10.73;8.13;;;2.50;87.40;;;;;;5067238;28;20201;-82
2021/04/15 03:27:00;;;;;;;10.20;8.07;;;2.20;87.20;;;;;;5067307;28;20698;-82
2021/04/15 03:29:28;;;;;;;10.93;8.10;;;2.10;89.30;;;;;;5065954;28;20190;-82
2021/04/15 03:32:11;;;;;;;14.17;8.20;;;2.00;87.40;;;;;;5066960;28;20278;-82
2021/04/15 03:34:45;;;;;;;9.70;7.07;;;1.80;88.70;;;;;;5072166;28;20399;-81
2021/04/15 03:37:18;;;;;;;10.37;7.30;;;1.60;90.40;;;;;;5070138;28;20208;-82
2021/04/15 03:39:46;;;;;;;10.43;7.90;;;1.80;91.30;;;;;;5066421;28;20301;-82
2021/04/15 03:42:22;;;;;;;9.30;7.30;;;1.90;88.70;;;;;;5074217;28;20259;-82
2021/04/15 03:44:52;;;;;;;15.17;7.53;;;1.80;89.00;;;;;;5068270;28;20239;-82
2021/04/15 03:47:21;;;;;;;13.83;7.37;;;2.00;90.00;;;;;;5073209;28;20867;-83
2021/04/15 03:49:54;;;;;;;10.23;6.33;;;2.00;87.10;;;;;;5073387;28;20262;-82
2021/04/15 03:52:23;;;;;;;10.90;6.33;;;1.80;87.00;;;;;;5070545;28;20204;-82
2021/04/15 03:54:53;;;;;;;9.50;6.20;;;1.80;88.60;;;;;;5068494;28;20289;-82
2021/04/15 03:57:22;;;;;;;8.03;6.20;;;2.00;87.10;;;;;;5075492;28;20219;-83
2021/04/15 03:59:54;;;;;;;9.50;6.40;;;2.10;84.60;;;;;;5066643;28;20232;-82
2021/04/15 04:02:27;;;;;;;9.17;6.37;;;1.90;83.80;;;;;;5075798;28;20227;-82
2021/04/15 04:04:59;;;;;;;9.53;6.50;;;1.70;84.00;;;;;;5064895;28;20221;-82
2021/04/15 04:07:31;;;;;;;9.83;6.13;;;1.60;84.70;;;;;;5068514;28;20196;-83
2021/04/15 04:10:01;;;;;;;11.07;6.77;;;1.60;86.80;;;;;;5075050;28;20611;-82
2021/04/15 04:12:34;;;;;;;7.10;6.07;;;1.50;86.80;;;;;;5077236;28;20288;-82
2021/04/15 04:15:07;;;;;;;8.23;5.23;;;1.50;86.70;;;;;;5066652;28;20235;-81
2021/04/15 04:17:40;;;;;;;10.10;5.77;;;1.40;85.00;;;;;;5069704;28;20196;-83
2021/04/15 04:20:10;;;;;;;12.30;6.13;;;1.40;86.00;;;;;;5077055;28;20229;-82
2021/04/15 04:22:43;;;;;;;9.63;5.53;;;1.40;85.40;;;;;;5078341;28;20753;-82
2021/04/15 04:25:14;;;;;;;9.07;5.37;;;1.40;86.10;;;;;;5070046;28;20615;-83
2021/04/15 04:27:47;;;;;;;10.47;5.40;;;1.40;84.50;;;;;;5065602;28;20226;-83
2021/04/15 04:30:18;;;;;;;8.97;5.63;;;1.40;84.40;;;;;;5076688;28;20621;-82
2021/04/15 04:32:46;;;;;;;10.40;5.50;;;1.50;83.50;;;;;;5074117;28;20595;-83
2021/04/15 04:35:21;;;;;;;8.97;5.27;;;1.50;84.50;;;;;;5076360;28;20223;-82
2021/04/15 04:37:50;;;;;;;9.13;5.47;;;1.60;83.10;;;;;;5073631;28;20217;-82
2021/04/15 04:40:20;;;;;;;9.03;4.83;;;1.50;83.10;;;;;;5064980;28;20243;-83
2021/04/15 04:42:52;;;;;;;8.17;5.37;;;1.50;83.00;;;;;;5064102;28;20284;-84
2021/04/15 04:45:20;;;;;;;10.17;5.33;;;1.40;83.50;;;;;;5066011;28;20276;-83
2021/04/15 04:47:53;;;;;;;8.97;5.70;;;1.40;83.30;;;;;;5069235;28;20639;-82
2021/04/15 04:50:41;;;;;;;8.47;5.87;;;1.40;83.20;;;;;;5059316;28;20253;-83
2021/04/15 04:53:12;;;;;;;6.43;5.27;;;1.40;83.10;;;;;;5069037;28;20207;-83
2021/04/15 04:55:45;;;;;;;8.53;5.37;;;1.40;82.90;;;;;;5068677;28;20230;-83
2021/04/15 04:58:13;;;;;;;9.23;5.53;;;1.40;82.80;;;;;;5068518;28;20538;-83
2021/04/15 05:00:44;;;;;;;9.87;5.83;;;1.40;82.90;;;;;;5067377;28;20239;-84
2021/04/15 05:03:11;;;;;;;11.57;5.80;;;1.40;82.70;;;;;;5068158;28;20200;-84
2021/04/15 05:05:38;;;;;;;7.43;5.30;;;1.40;82.70;;;;;;5062184;28;20341;-84
2021/04/15 05:08:09;;;;;;;10.40;5.47;;;1.50;81.70;;;;;;5069885;28;20208;-84
2021/04/15 05:10:35;;;;;;;9.30;5.30;;;1.50;81.30;;;;;;5055533;28;20237;-84
2021/04/15 05:13:09;;;;;;;8.50;5.43;;;1.60;81.30;;;;;;5060779;28;20197;-84
2021/04/15 05:15:37;;;;;;;9.20;5.43;;;1.60;80.30;;;;;;5068047;28;20277;-83
2021/04/15 05:18:05;;;;;;;9.90;5.57;;;1.70;80.00;;;;;;5069113;28;20204;-84
2021/04/15 05:20:31;;;;;;;7.97;5.60;;;1.80;79.60;;;;;;5070633;28;20222;-84
2021/04/15 05:23:06;;;;;;;9.20;5.03;;;1.90;79.00;;;;;;5069917;28;20293;-84
2021/04/15 05:25:39;;;;;;;9.43;5.33;;;2.10;79.30;;;;;;5071180;28;20232;-84
2021/04/15 05:28:09;;;;;;;7.00;4.90;;;2.20;79.00;;;;;;5069120;28;20197;-84
2021/04/15 05:30:40;;;;;;;8.00;5.20;;;2.30;78.40;;;;;;5069538;28;20239;-84
2021/04/15 05:33:12;;;;;;;7.40;5.20;;;2.30;76.90;;;;;;5068363;28;20217;-83
2021/04/15 05:35:42;;;;;;;7.20;5.03;;;2.30;76.60;;;;;;5064040;28;20311;-84
2021/04/15 05:38:12;;;;;;;7.00;4.80;;;2.30;76.50;;;;;;5058759;28;20190;-84
2021/04/15 05:40:46;;;;;;;8.80;4.97;;;2.40;76.40;;;;;;5068059;28;20282;-84
2021/04/15 05:43:29;;;;;;;7.80;5.10;;;2.60;76.40;;;;;;5073802;28;20226;-84
2021/04/15 05:46:05;;;;;;;12.43;5.60;;;2.70;74.60;;;;;;5069182;28;20569;-84
2021/04/15 05:48:33;;;;;;;10.70;5.40;;;2.70;73.30;;;;;;5068899;28;20197;-84
2021/04/15 05:51:03;;;;;;;10.13;5.83;;;3.20;73.30;;;;;;5070165;28;20623;-83
2021/04/15 05:53:35;;;;;;;8.57;5.83;;;3.20;67.80;;;;;;5069086;28;20211;-90
2021/04/15 05:56:10;;;;;;;10.10;5.50;;;3.20;67.90;;;;;;5055169;28;20232;-84
2021/04/15 05:58:40;;;;;;;12.63;6.00;;;3.30;68.00;;;;;;5066748;28;20553;-83
2021/04/15 06:01:10;;;;;;;10.60;6.20;;;3.40;68.10;;;;;;5062281;28;20226;-83
2021/04/15 06:03:49;;;;;;;8.47;5.73;;;3.80;67.00;;;;;;5066977;28;20197;-82
2021/04/15 06:06:18;;;;;;;7.17;5.40;;;4.40;64.20;;;;;;5066344;28;20595;-85
2021/04/15 06:08:49;;;;;;;9.57;5.17;;;4.90;59.80;;;;;;5058332;28;20661;-86
2021/04/15 06:11:39;;;;;;;10.30;5.30;;;5.90;57.50;;;;;;5067053;28;20597;-84
2021/04/15 06:14:15;;;;;;;6.67;5.30;;;6.80;51.30;;;;;;5075177;28;20201;-83
2021/04/15 06:16:46;;;;;;;6.80;5.10;;;7.60;46.40;;;;;;5079308;28;20234;-85
2021/04/15 06:19:16;;;;;;;6.30;5.05;;;8.00;43.90;;;;;;5073639;28;20201;-90
2021/04/15 06:21:46;;;;;;;6.32;5.15;;;8.30;43.10;;;;;;5060726;28;20322;-89
2021/04/15 06:24:17;;;;;;;10.25;5.20;;;8.40;40.70;;;;;;5063367;28;20198;-89
2021/04/15 06:26:50;;;;;;;7.65;5.28;;;8.00;42.60;;;;;;5062797;28;20217;-89
2021/04/15 06:29:27;;;;;;;10.55;5.75;;;7.60;43.70;;;;;;5057919;28;20201;-90
2021/04/15 06:31:57;;;;;;;7.57;5.63;;;6.80;45.70;;;;;;5068517;28;20230;-87
2021/04/15 06:34:24;;;;;;;7.03;4.97;;;7.10;46.00;;;;;;5071422;28;20208;-87
2021/04/15 06:37:10;;;;;;;7.25;4.95;;;7.30;45.00;;;;;;5080597;28;20197;-86
2021/04/15 06:39:41;;;;;;;9.48;5.50;;;7.60;46.40;;;;;;5080368;28;20189;-86
2021/04/15 06:42:40;;;;;;;8.60;5.47;;;7.80;42.90;;;;;;5064206;28;20221;-86
2021/04/15 06:45:29;;;;;;;8.90;6.20;;;7.50;43.70;;;;;;5054430;28;20218;-91
2021/04/15 06:48:32;;;;;;;8.25;5.72;;;7.10;45.30;;;;;;5061960;28;20817;-88
2021/04/15 06:51:37;;;;;;;10.05;5.13;;;6.80;45.70;;;;;;5066378;28;20588;-87
2021/04/15 06:54:49;;;;;;;8.93;5.53;;;6.60;45.60;;;;;;5067317;28;20197;-86
2021/04/15 06:57:45;;;;;;;6.50;5.60;;;6.50;47.10;;;;;;5071516;28;20239;-87
2021/04/15 07:00:32;;;;;;;9.63;5.67;;;6.50;45.50;;;;;;5067113;28;20221;-90
2021/04/15 07:03:11;;;;;;;10.53;6.03;;;6.20;46.40;;;;;;5059714;28;20664;-88
2021/04/15 07:05:54;;;;;;;7.37;5.47;;;5.90;49.70;;;;;;5072344;28;20232;-86
2021/04/15 07:08:44;;;;;;;8.90;6.27;;;5.90;50.80;;;;;;5067426;28;20260;-88
2021/04/15 07:11:31;;;;;;;11.30;5.80;;;6.00;49.40;;;;;;5067024;28;20229;-86
2021/04/15 07:14:25;;;;;;;10.00;5.60;;;6.10;49.20;;;;;;5061388;28;20202;-86
2021/04/15 07:17:24;;;;;;;6.30;5.53;;;6.40;49.10;;;;;;5054483;28;20241;-87
2021/04/15 07:24:06;;;;;;;8.50;5.70;;;6.40;51.80;;;;;;5058682;28;20277;-86
2021/04/15 07:27:09;;;;;;;7.13;5.43;;;6.50;45.50;;;;;;5052722;28;20230;-84
2021/04/15 07:29:44;;;;;;;8.03;5.70;;;6.50;47.80;;;;;;5059706;28;20194;-88
2021/04/15 07:32:43;;;;;;;8.53;6.13;;;6.70;45.80;;;;;;5070688;28;20228;-88
2021/04/15 07:35:24;;;;;;;7.10;6.00;;;6.60;46.80;;;;;;5068944;28;20446;-90
2021/04/15 07:38:22;;;;;;;8.70;6.10;;;6.70;47.80;;;;;;5069963;28;20240;-86
2021/04/15 07:41:04;;;;;;;8.02;5.95;;;7.10;46.00;;;;;;5070208;28;20222;-87
2021/04/15 07:44:08;;;;;;;8.27;5.50;;;7.70;46.40;;;;;;5061485;28;20200;-87
2021/04/15 07:46:44;;;;;;;7.90;5.68;;;7.90;44.40;;;;;;5073694;28;20220;-87
2021/04/15 07:49:51;;;;;;;9.48;6.00;;;9.00;44.40;;;;;;5075043;28;20242;-87
2021/04/15 07:52:47;;;;;;;7.93;6.15;;;9.40;39.80;;;;;;5069049;28;20221;-87
2021/04/15 07:55:30;;;;;;;11.10;6.30;;;8.90;40.80;;;;;;5042690;28;20260;-86
2021/04/15 07:58:31;;;;;;;9.30;6.13;;;8.70;43.30;;;;;;5073537;28;20201;-89
2021/04/15 08:01:37;;;;;;;13.63;6.60;;;8.50;41.30;;;;;;5061202;28;20275;-88
2021/04/15 08:04:48;;;;;;;10.75;6.20;;;8.50;44.70;;;;;;5073002;28;20204;-86
2021/04/15 08:07:36;;;;;;;11.95;7.05;;;8.50;43.00;;;;;;5069475;28;20525;-86
2021/04/15 08:10:38;;;;;;;9.15;6.53;;;8.10;45.00;;;;;;5069246;28;20220;-85
2021/04/15 08:13:35;;;;;;;8.88;6.20;;;7.90;44.50;;;;;;5067860;28;20207;-86
2021/04/15 08:16:32;;;;;;;9.80;5.57;;;7.70;44.00;;;;;;5071677;28;20225;-86
2021/04/15 08:19:12;;;;;;;10.82;5.93;;;8.10;41.80;;;;;;5072285;28;20194;-87
2021/04/15 08:21:45;;;;;;;7.97;5.32;;;8.20;40.90;;;;;;5067977;28;20596;-86
2021/04/15 08:24:46;;;;;;;9.50;5.97;;;8.40;41.00;;;;;;5068918;28;20205;-87
2021/04/15 08:27:55;;;;;;;7.40;5.82;;;8.40;40.50;;;;;;5064328;28;20209;-86
2021/04/15 08:30:46;;;;;;;11.23;5.80;;;8.50;40.90;;;;;;5005379;28;20286;-88
2021/04/15 08:33:41;;;;;;;6.40;5.63;;;8.40;40.70;;;;;;5046377;28;20236;-85
2021/04/15 08:36:51;;;;;;;9.23;5.97;;;9.00;40.30;;;;;;5049760;28;20282;-85
2021/04/15 08:39:32;;;;;;;7.13;5.78;;;9.00;40.20;;;;;;5069913;28;20575;-89
2021/04/15 08:42:09;;;;;;;6.72;5.20;;;9.60;38.70;;;;;;5069741;28;20240;-84
2021/04/15 08:45:23;;;;;;;7.13;5.35;;;9.30;37.60;;;;;;5066838;28;20202;-83
2021/04/15 08:48:06;;;;;;;8.50;4.97;;;9.70;36.40;;;;;;5046834;28;20567;-83
2021/04/15 08:50:43;;;;;;;8.90;5.57;;;10.00;35.90;;;;;;5065265;28;20221;-85
2021/04/15 08:53:28;;;;;;;9.38;5.50;;;10.00;37.50;;;;;;5067264;28;20205;-84
2021/04/15 08:56:01;;;;;;;8.80;5.95;;;10.00;34.50;;;;;;5073917;28;20224;-87
2021/04/15 08:58:50;;;;;;;7.95;5.40;;;9.80;36.00;;;;;;5073111;28;20205;-86
2021/04/15 09:01:22;;;;;;;9.82;5.30;;;10.30;34.80;;;;;;5060097;28;20223;-84
2021/04/15 09:03:55;;;;;;;7.30;5.18;;;11.80;30.10;;;;;;5070179;28;20205;-82
2021/04/15 09:06:25;;;;;;;4.82;4.32;;;13.60;26.70;;;;;;5062396;28;20236;-86
2021/04/15 09:09:17;;;;;;;4.97;4.45;;;14.40;22.20;;;;;;5065411;28;21062;-85
2021/04/15 09:11:59;;;;;;;6.85;4.50;;;16.50;18.90;;;;;;5063023;28;20233;-83
2021/04/15 09:14:35;;;;;;;7.38;4.57;;;17.70;18.50;;;;;;5056239;28;20196;-81
2021/04/15 09:17:05;;;;;;;5.95;4.88;;;18.80;16.30;;;;;;5059754;28;20618;-82
2021/04/15 09:19:45;;;;;;;6.03;4.70;;;18.10;16.30;;;;;;5060493;28;20209;-82
2021/04/15 09:22:28;;;;;;;5.82;4.68;;;16.70;17.90;;;;;;5062973;28;20220;-84
2021/04/15 09:25:02;;;;;;;7.65;4.75;;;14.00;20.10;;;;;;5066683;28;20229;-85
2021/04/15 09:27:52;;;;;;;5.65;5.05;;;13.00;24.90;;;;;;5062050;28;20660;-84
2021/04/15 09:30:35;;;;;;;7.60;5.18;;;11.90;25.20;;;;;;5059390;28;20225;-88
2021/04/15 09:33:10;;;;;;;7.88;5.18;;;11.10;26.90;;;;;;5066860;28;20248;-85
2021/04/15 09:36:10;;;;;;;6.95;5.07;;;10.60;28.00;;;;;;5070635;28;20225;-87
2021/04/15 09:39:08;;;;;;;6.05;4.18;;;10.10;27.80;;;;;;5072015;28;20198;-89
2021/04/15 09:41:59;;;;;;;6.45;5.00;;;9.50;26.90;;;;;;5038106;28;20222;-89
2021/04/15 09:44:57;;;;;;;6.47;5.28;;;8.90;30.20;;;;;;5061799;28;20286;-87
2021/04/15 09:47:35;;;;;;;6.63;5.22;;;8.30;32.20;;;;;;5039979;28;20573;-87
2021/04/15 09:50:12;;;;;;;15.27;5.00;;;7.90;32.90;;;;;;5066171;28;20228;-89
2021/04/15 09:52:49;;;;;;;6.75;5.32;;;8.20;36.10;;;;;;5062515;28;20209;-89
2021/04/15 09:55:33;;;;;;;6.90;5.10;;;8.40;34.40;;;;;;5065032;28;20220;-87
2021/04/15 09:58:12;;;;;;;6.85;5.32;;;8.40;33.70;;;;;;5062372;28;20220;-91
2021/04/15 10:00:43;;;;;;;9.10;5.53;;;8.10;35.60;;;;;;5064146;28;20221;-87
2021/04/15 10:03:24;;;;;;;7.43;5.38;;;8.00;34.60;;;;;;5060249;28;20236;-87
2021/04/15 10:06:03;;;;;;;7.90;5.28;;;7.90;34.80;;;;;;5059126;28;20222;-86
2021/04/15 10:08:38;;;;;;;5.78;5.03;;;8.10;36.80;;;;;;5061621;28;20721;-88
2021/04/15 10:11:30;;;;;;;8.55;5.20;;;8.30;37.00;;;;;;5066510;28;20229;-87
2021/04/15 10:14:15;;;;;;;5.63;3.88;;;8.40;33.80;;;;;;5072481;28;20243;-86
2021/04/15 10:16:49;;;;;;;5.88;4.30;;;8.40;33.20;;;;;;5069362;28;20755;-88
2021/04/15 10:19:50;;;;;;;5.63;3.30;;;8.30;33.00;;;;;;5086764;28;20207;-88
2021/04/15 10:22:29;;;;;;;6.00;3.80;;;9.00;32.30;;;;;;5055987;28;20272;-87
2021/04/15 10:25:05;;;;;;;4.97;3.70;;;9.20;31.30;;;;;;5079882;28;20220;-85
2021/04/15 10:28:03;;;;;;;4.68;3.78;;;10.00;31.50;;;;;;5071500;28;20283;-87
2021/04/15 10:31:24;;;;;;;4.82;4.07;;;12.10;25.40;;;;;;5043768;28;20232;-87
2021/04/15 10:34:26;;;;;;;4.32;3.83;;;14.00;23.40;;;;;;5053408;28;20201;-85
2021/04/15 10:37:02;;;;;;;4.82;4.15;;;15.50;18.20;;;;;;5065262;28;20216;-88
2021/04/15 10:40:08;;;;;;;5.20;4.70;;;16.50;19.10;;;;;;5063616;28;20201;-85
2021/04/15 10:43:28;;;;;;;4.90;4.40;;;16.00;19.60;;;;;;5068069;28;20575;-86
2021/04/15 10:46:37;;;;;;;5.78;4.00;;;17.80;19.40;;;;;;5069616;28;20230;-84
2021/04/15 10:49:13;;;;;;;10.90;4.38;;;17.20;18.50;;;;;;5067330;28;20189;-86
2021/04/15 10:52:20;;;;;;;5.57;4.10;;;14.80;23.50;;;;;;5066777;28;20235;-88
2021/04/15 10:54:47;;;;;;;5.18;4.25;;;12.00;25.30;;;;;;5067124;28;20230;-87
2021/04/15 10:57:17;;;;;;;4.50;4.03;;;9.90;34.20;;;;;;5075588;28;20589;-88
2021/04/15 10:59:45;;;;;;;6.20;4.85;;;8.60;39.90;;;;;;5070009;28;20232;-85
2021/04/15 11:02:33;;;;;;;5.55;4.53;;;7.90;42.50;;;;;;5070328;28;20695;-87
2021/04/15 11:05:17;;;;;;;5.20;4.60;;;7.60;42.90;;;;;;5067288;28;20228;-83
2021/04/15 11:07:46;;;;;;;6.97;4.30;;;7.40;46.30;;;;;;5068696;28;20251;-82
2021/04/15 11:10:22;;;;;;;5.77;5.10;;;7.30;49.30;;;;;;5065291;28;20248;-83
2021/04/15 11:12:48;;;;;;;8.60;4.70;;;7.30;49.90;;;;;;5062125;28;20744;-84
2021/04/15 11:15:22;;;;;;;5.10;4.60;;;7.10;47.90;;;;;;5061828;28;20568;-85
2021/04/15 11:17:50;;;;;;;7.17;4.17;;;7.00;46.50;;;;;;5066763;28;20216;-83
2021/04/15 11:20:31;;;;;;;5.37;4.40;;;7.20;46.10;;;;;;5067065;28;20221;-84
2021/04/15 11:23:07;;;;;;;6.03;4.80;;;7.40;46.30;;;;;;5060689;28;20935;-84
2021/04/15 11:25:38;;;;;;;5.57;4.63;;;7.70;46.50;;;;;;5065779;28;20244;-85
2021/04/15 11:28:11;;;;;;;6.83;4.37;;;8.10;46.80;;;;;;5061304;28;20197;-84
2021/04/15 11:30:44;;;;;;;6.63;4.80;;;8.40;42.90;;;;;;5055649;28;20229;-86
2021/04/15 11:33:12;;;;;;;5.60;4.47;;;8.80;43.20;;;;;;5063842;28;20202;-86
2021/04/15 11:35:40;;;;;;;4.93;4.40;;;8.70;45.50;;;;;;5058942;28;20226;-89
2021/04/15 11:38:16;;;;;;;5.77;4.20;;;8.60;42.80;;;;;;5059674;28;20215;-87
2021/04/15 11:40:44;;;;;;;5.03;4.53;;;8.50;40.70;;;;;;5062669;28;20286;-88
2021/04/15 11:43:33;;;;;;;6.40;3.63;;;8.40;39.80;;;;;;5066646;28;20565;-88
2021/04/15 11:46:20;;;;;;;8.93;4.23;;;8.40;39.30;;;;;;5062261;28;20279;-87
2021/04/15 11:49:04;;;;;;;9.57;4.80;;;8.40;39.70;;;;;;5065205;28;20239;-88
2021/04/15 11:51:35;;;;;;;6.90;4.53;;;8.20;38.70;;;;;;5072163;28;20224;-85
2021/04/15 11:54:03;;;;;;;6.25;4.15;;;8.40;38.60;;;;;;5068841;28;20200;-85
2021/04/15 11:56:33;;;;;;;5.63;4.20;;;8.80;36.90;;;;;;5073197;28;20703;-84
2021/04/15 11:59:27;;;;;;;5.72;3.80;;;8.70;37.70;;;;;;5076529;28;20197;-85
2021/04/15 12:01:54;;;;;;;5.83;3.97;;;8.60;36.30;;;;;;5060700;28;20592;-85
2021/04/15 12:04:26;;;;;;;7.85;3.78;;;8.90;37.70;;;;;;5071184;28;20199;-85
2021/04/15 12:06:58;;;;;;;4.45;3.97;;;9.20;37.90;;;;;;5075472;28;20229;-85
2021/04/15 12:09:32;;;;;;;6.55;4.05;;;9.30;35.10;;;;;;5064742;28;20197;-84
2021/04/15 12:12:06;;;;;;;5.68;4.28;;;9.40;33.60;;;;;;5061237;28;20197;-87
2021/04/15 12:14:34;;;;;;;4.65;4.00;;;9.30;33.50;;;;;;5067677;28;20651;-86
2021/04/15 12:17:07;;;;;;;4.10;3.60;;;9.40;33.10;;;;;;5071949;28;20267;-84
2021/04/15 12:19:42;;;;;;;7.60;3.65;;;9.40;32.40;;;;;;5068800;28;20690;-85
2021/04/15 12:22:24;;;;;;;4.55;3.85;;;9.30;30.20;;;;;;5066447;28;20223;-84
2021/04/15 12:25:01;;;;;;;4.10;3.70;;;9.70;32.50;;;;;;5066352;28;20233;-85
2021/04/15 12:27:29;;;;;;;4.30;3.90;;;9.80;29.70;;;;;;5070706;28;20205;-85
2021/04/15 12:30:02;;;;;;;4.38;3.70;;;10.00;28.00;;;;;;5070877;28;20859;-87
2021/04/15 12:32:40;;;;;;;5.88;3.63;;;10.40;25.40;;;;;;5063261;28;20244;-85
2021/04/15 12:35:17;;;;;;;7.25;4.03;;;10.50;27.20;;;;;;5064768;28;20225;-88
2021/04/15 12:37:49;;;;;;;4.20;3.80;;;10.40;27.40;;;;;;5066976;28;20193;-83
2021/04/15 12:40:40;;;;;;;6.40;4.57;;;10.10;27.70;;;;;;5069718;28;20696;-86
2021/04/15 12:43:11;;;;;;;5.70;4.55;;;9.90;31.10;;;;;;5069262;28;20597;-83
2021/04/15 12:45:43;;;;;;;8.65;4.60;;;9.50;33.20;;;;;;5062255;28;20245;-82
2021/04/15 12:48:15;;;;;;;8.60;4.57;;;9.30;33.80;;;;;;5072719;28;20202;-82
2021/04/15 12:50:43;;;;;;;8.68;4.70;;;9.20;35.40;;;;;;5066747;28;20213;-83
2021/04/15 12:53:13;;;;;;;8.93;4.60;;;9.30;36.10;;;;;;5065859;28;20204;-83
2021/04/15 12:55:41;;;;;;;5.10;4.43;;;9.40;36.10;;;;;;5066907;28;20219;-86
2021/04/15 12:58:08;;;;;;;6.82;4.68;;;9.40;35.50;;;;;;5072901;28;20197;-84
2021/04/15 13:00:40;;;;;;;4.82;4.32;;;9.40;34.30;;;;;;5071670;28;20232;-83
2021/04/15 13:03:10;;;;;;;6.15;4.35;;;9.40;33.50;;;;;;5066731;28;20569;-84
2021/04/15 13:05:56;;;;;;;4.72;4.30;;;9.40;33.10;;;;;;5075477;28;20229;-85
2021/04/15 13:08:25;;;;;;;4.57;4.00;;;9.30;33.80;;;;;;5062077;28;20224;-83
2021/04/15 13:10:53;;;;;;;4.70;4.20;;;9.30;33.50;;;;;;5071521;28;20233;-85
2021/04/15 13:13:41;;;;;;;7.28;4.43;;;9.30;33.70;;;;;;5069650;28;20209;-83
2021/04/15 13:16:39;;;;;;;4.80;3.92;;;9.10;34.30;;;;;;5070299;28;20220;-85
2021/04/15 13:19:31;;;;;;;8.20;4.18;;;9.10;35.50;;;;;;5063508;28;20611;-87
2021/04/15 13:22:03;;;;;;;4.13;3.63;;;9.20;35.30;;;;;;5063834;28;20244;-83
2021/04/15 13:24:51;;;;;;;7.47;4.00;;;8.90;33.60;;;;;;5069398;28;20648;-84
2021/04/15 13:28:09;;;;;;;4.03;3.65;;;9.10;34.80;;;;;;5064776;28;20202;-84
2021/04/15 13:30:57;;;;;;;4.20;3.80;;;9.40;31.80;;;;;;5065502;28;20226;-82
2021/04/15 13:34:10;;;;;;;4.97;3.78;;;9.50;32.50;;;;;;5066829;28;20212;-86
2021/04/15 13:36:38;;;;;;;4.95;3.55;;;9.50;30.20;;;;;;5039774;28;20235;-82
2021/04/15 13:39:32;;;;;;;3.70;3.40;;;9.60;30.30;;;;;;5068342;28;20236;-83
2021/04/15 13:42:03;;;;;;;4.10;3.40;;;9.30;31.00;;;;;;5072939;28;20225;-81
2021/04/15 13:44:58;;;;;;;3.67;3.38;;;9.20;31.20;;;;;;5069743;28;20203;-84
2021/04/15 13:47:50;;;;;;;7.78;3.38;;;9.20;29.50;;;;;;5054999;28;20194;-83
2021/04/15 13:50:18;;;;;;;4.85;3.33;;;8.90;29.80;;;;;;5076809;28;20232;-81
2021/04/15 13:52:45;;;;;;;4.23;3.33;;;9.10;30.80;;;;;;5067778;28;20207;-88
2021/04/15 13:55:31;;;;;;;4.45;3.40;;;8.90;30.50;;;;;;5068884;28;20225;-84
2021/04/15 13:57:58;;;;;;;7.77;3.57;;;8.80;31.60;;;;;;5066987;28;20198;-84